sensor_id;sensor_type;location;lat;lon;timestamp;P1;durP1;ratioP1;P2;durP2;ratioP2
69910;SDS011;57194;50.156;14.518;2022-08-23T00:00:43;14.32;;;8.27;;
69910;SDS011;57194;50.156;14.518;2022-08-23T00:03:08;17.03;;;8.80;;
69910;SDS011;57194;50.156;14.518;2022-08-23T00:05:33;13.03;;;7.90;;
69910;SDS011;57194;50.156;14.518;2022-08-23T00:07:59;13.20;;;8.13;;
69910;SDS011;57194;50.156;14.518;2022-08-23T00:10:24;17.43;;;8.50;;
69910;SDS011;57194;50.156;14.518;2022-08-23T00:12:50;18.93;;;9.37;;
69910;SDS011;57194;50.156;14.518;2022-08-23T00:15:16;15.02;;;8.57;;
69910;SDS011;57194;50.156;14.518;2022-08-23T00:17:42;15.95;;;8.13;;
69910;SDS011;57194;50.156;14.518;2022-08-23T00:20:09;19.63;;;9.07;;
69910;SDS011;57194;50.156;14.518;2022-08-23T00:22:38;19.00;;;9.73;;
69910;SDS011;57194;50.156;14.518;2022-08-23T00:25:05;15.00;;;9.23;;
69910;SDS011;57194;50.156;14.518;2022-08-23T00:27:32;18.02;;;8.88;;
69910;SDS011;57194;50.156;14.518;2022-08-23T00:29:58;16.42;;;9.60;;
69910;SDS011;57194;50.156;14.518;2022-08-23T00:32:28;17.77;;;9.13;;
69910;SDS011;57194;50.156;14.518;2022-08-23T00:34:55;21.08;;;10.02;;
69910;SDS011;57194;50.156;14.518;2022-08-23T00:37:22;19.48;;;10.30;;
69910;SDS011;57194;50.156;14.518;2022-08-23T00:39:48;22.00;;;11.52;;
69910;SDS011;57194;50.156;14.518;2022-08-23T00:42:32;22.10;;;11.00;;
69910;SDS011;57194;50.156;14.518;2022-08-23T00:45:27;22.83;;;11.05;;
69910;SDS011;57194;50.156;14.518;2022-08-23T00:48:19;19.33;;;9.63;;
69910;SDS011;57194;50.156;14.518;2022-08-23T00:53:23;22.33;;;10.55;;
69910;SDS011;57194;50.156;14.518;2022-08-23T00:55:53;23.40;;;10.25;;
69910;SDS011;57194;50.156;14.518;2022-08-23T00:58:21;23.33;;;10.33;;
69910;SDS011;57194;50.156;14.518;2022-08-23T01:00:48;24.05;;;11.00;;
69910;SDS011;57194;50.156;14.518;2022-08-23T01:03:15;24.70;;;10.17;;
69910;SDS011;57194;50.156;14.518;2022-08-23T01:08:35;19.77;;;10.20;;
69910;SDS011;57194;50.156;14.518;2022-08-23T01:11:07;20.88;;;10.40;;
69910;SDS011;57194;50.156;14.518;2022-08-23T01:13:36;21.98;;;10.07;;
69910;SDS011;57194;50.156;14.518;2022-08-23T01:19:14;19.00;;;9.52;;
69910;SDS011;57194;50.156;14.518;2022-08-23T01:21:56;19.73;;;9.93;;
69910;SDS011;57194;50.156;14.518;2022-08-23T01:24:44;17.52;;;9.90;;
69910;SDS011;57194;50.156;14.518;2022-08-23T01:27:10;17.95;;;9.75;;
69910;SDS011;57194;50.156;14.518;2022-08-23T01:29:37;17.40;;;9.17;;
69910;SDS011;57194;50.156;14.518;2022-08-23T01:32:04;20.08;;;9.85;;
69910;SDS011;57194;50.156;14.518;2022-08-23T01:34:30;17.75;;;9.10;;
69910;SDS011;57194;50.156;14.518;2022-08-23T01:36:56;17.87;;;9.33;;
69910;SDS011;57194;50.156;14.518;2022-08-23T01:39:22;14.07;;;8.18;;
69910;SDS011;57194;50.156;14.518;2022-08-23T01:41:48;19.47;;;8.97;;
69910;SDS011;57194;50.156;14.518;2022-08-23T01:44:14;16.02;;;8.95;;
69910;SDS011;57194;50.156;14.518;2022-08-23T01:46:42;18.03;;;8.93;;
69910;SDS011;57194;50.156;14.518;2022-08-23T01:49:11;17.13;;;10.35;;
69910;SDS011;57194;50.156;14.518;2022-08-23T01:51:38;16.73;;;7.47;;
69910;SDS011;57194;50.156;14.518;2022-08-23T01:54:03;13.93;;;7.60;;
69910;SDS011;57194;50.156;14.518;2022-08-23T01:56:29;16.08;;;8.80;;
69910;SDS011;57194;50.156;14.518;2022-08-23T01:58:56;14.75;;;8.25;;
69910;SDS011;57194;50.156;14.518;2022-08-23T02:01:22;14.57;;;8.52;;
69910;SDS011;57194;50.156;14.518;2022-08-23T02:03:47;17.83;;;8.70;;
69910;SDS011;57194;50.156;14.518;2022-08-23T02:06:12;16.33;;;8.60;;
69910;SDS011;57194;50.156;14.518;2022-08-23T02:08:38;13.85;;;8.05;;
69910;SDS011;57194;50.156;14.518;2022-08-23T02:11:23;16.73;;;8.05;;
69910;SDS011;57194;50.156;14.518;2022-08-23T02:13:49;17.92;;;8.85;;
69910;SDS011;57194;50.156;14.518;2022-08-23T02:16:20;18.45;;;8.48;;
69910;SDS011;57194;50.156;14.518;2022-08-23T02:18:51;14.60;;;8.20;;
69910;SDS011;57194;50.156;14.518;2022-08-23T02:21:18;16.83;;;8.00;;
69910;SDS011;57194;50.156;14.518;2022-08-23T02:23:45;15.38;;;8.07;;
69910;SDS011;57194;50.156;14.518;2022-08-23T02:26:10;15.50;;;8.68;;
69910;SDS011;57194;50.156;14.518;2022-08-23T02:28:37;14.93;;;7.68;;
69910;SDS011;57194;50.156;14.518;2022-08-23T02:31:03;19.33;;;8.47;;
69910;SDS011;57194;50.156;14.518;2022-08-23T02:33:28;12.27;;;7.80;;
69910;SDS011;57194;50.156;14.518;2022-08-23T02:35:53;13.73;;;7.17;;
69910;SDS011;57194;50.156;14.518;2022-08-23T02:38:19;15.00;;;7.75;;
69910;SDS011;57194;50.156;14.518;2022-08-23T02:40:44;14.23;;;7.97;;
69910;SDS011;57194;50.156;14.518;2022-08-23T02:43:12;14.32;;;7.40;;
69910;SDS011;57194;50.156;14.518;2022-08-23T02:45:37;13.73;;;7.57;;
69910;SDS011;57194;50.156;14.518;2022-08-23T02:48:03;14.40;;;7.15;;
69910;SDS011;57194;50.156;14.518;2022-08-23T02:50:29;13.87;;;8.43;;
69910;SDS011;57194;50.156;14.518;2022-08-23T02:52:54;12.70;;;7.00;;
69910;SDS011;57194;50.156;14.518;2022-08-23T02:55:22;12.70;;;8.17;;
69910;SDS011;57194;50.156;14.518;2022-08-23T02:57:48;14.40;;;7.78;;
69910;SDS011;57194;50.156;14.518;2022-08-23T03:00:14;17.10;;;9.33;;
69910;SDS011;57194;50.156;14.518;2022-08-23T03:02:41;16.67;;;10.05;;
69910;SDS011;57194;50.156;14.518;2022-08-23T03:05:08;14.93;;;8.87;;
69910;SDS011;57194;50.156;14.518;2022-08-23T03:07:34;15.60;;;8.98;;
69910;SDS011;57194;50.156;14.518;2022-08-23T03:09:59;17.37;;;8.63;;
69910;SDS011;57194;50.156;14.518;2022-08-23T03:12:25;16.90;;;9.15;;
69910;SDS011;57194;50.156;14.518;2022-08-23T03:14:51;17.83;;;9.00;;
69910;SDS011;57194;50.156;14.518;2022-08-23T03:17:17;20.25;;;8.75;;
69910;SDS011;57194;50.156;14.518;2022-08-23T03:19:42;20.48;;;9.90;;
69910;SDS011;57194;50.156;14.518;2022-08-23T03:22:08;18.20;;;9.37;;
69910;SDS011;57194;50.156;14.518;2022-08-23T03:24:33;18.37;;;9.23;;
69910;SDS011;57194;50.156;14.518;2022-08-23T03:26:59;18.13;;;9.88;;
69910;SDS011;57194;50.156;14.518;2022-08-23T03:29:24;20.23;;;10.27;;
69910;SDS011;57194;50.156;14.518;2022-08-23T03:31:49;19.53;;;10.53;;
69910;SDS011;57194;50.156;14.518;2022-08-23T03:34:15;19.60;;;10.03;;
69910;SDS011;57194;50.156;14.518;2022-08-23T03:36:41;22.70;;;10.38;;
69910;SDS011;57194;50.156;14.518;2022-08-23T03:39:06;18.50;;;9.47;;
69910;SDS011;57194;50.156;14.518;2022-08-23T03:41:32;22.53;;;11.10;;
69910;SDS011;57194;50.156;14.518;2022-08-23T03:43:57;17.90;;;9.50;;
69910;SDS011;57194;50.156;14.518;2022-08-23T03:46:22;19.80;;;10.23;;
69910;SDS011;57194;50.156;14.518;2022-08-23T03:48:52;18.15;;;9.13;;
69910;SDS011;57194;50.156;14.518;2022-08-23T03:51:20;24.13;;;10.23;;
69910;SDS011;57194;50.156;14.518;2022-08-23T03:53:47;24.15;;;9.85;;
69910;SDS011;57194;50.156;14.518;2022-08-23T03:56:23;21.85;;;10.18;;
69910;SDS011;57194;50.156;14.518;2022-08-23T03:58:58;21.05;;;9.63;;
69910;SDS011;57194;50.156;14.518;2022-08-23T04:01:30;20.58;;;9.63;;
69910;SDS011;57194;50.156;14.518;2022-08-23T04:03:55;21.87;;;10.37;;
69910;SDS011;57194;50.156;14.518;2022-08-23T04:06:24;21.17;;;9.48;;
69910;SDS011;57194;50.156;14.518;2022-08-23T04:08:51;20.70;;;9.03;;
69910;SDS011;57194;50.156;14.518;2022-08-23T04:11:18;23.83;;;9.90;;
69910;SDS011;57194;50.156;14.518;2022-08-23T04:13:44;19.67;;;9.30;;
69910;SDS011;57194;50.156;14.518;2022-08-23T04:16:10;18.25;;;9.27;;
69910;SDS011;57194;50.156;14.518;2022-08-23T04:18:35;19.20;;;8.82;;
69910;SDS011;57194;50.156;14.518;2022-08-23T04:21:03;18.87;;;9.20;;
69910;SDS011;57194;50.156;14.518;2022-08-23T04:23:34;21.23;;;9.25;;
69910;SDS011;57194;50.156;14.518;2022-08-23T04:26:00;21.60;;;9.70;;
69910;SDS011;57194;50.156;14.518;2022-08-23T04:28:25;18.67;;;9.00;;
69910;SDS011;57194;50.156;14.518;2022-08-23T04:30:51;16.40;;;8.03;;
69910;SDS011;57194;50.156;14.518;2022-08-23T04:33:16;18.63;;;8.93;;
69910;SDS011;57194;50.156;14.518;2022-08-23T04:35:42;18.45;;;8.05;;
69910;SDS011;57194;50.156;14.518;2022-08-23T04:38:08;18.10;;;8.00;;
69910;SDS011;57194;50.156;14.518;2022-08-23T04:40:34;19.17;;;8.95;;
69910;SDS011;57194;50.156;14.518;2022-08-23T04:43:18;16.45;;;7.65;;
69910;SDS011;57194;50.156;14.518;2022-08-23T04:45:44;19.05;;;8.20;;
69910;SDS011;57194;50.156;14.518;2022-08-23T04:48:11;17.97;;;7.67;;
69910;SDS011;57194;50.156;14.518;2022-08-23T04:50:37;17.85;;;8.13;;
69910;SDS011;57194;50.156;14.518;2022-08-23T04:53:04;19.80;;;8.27;;
69910;SDS011;57194;50.156;14.518;2022-08-23T04:55:29;17.43;;;8.30;;
69910;SDS011;57194;50.156;14.518;2022-08-23T04:57:55;15.68;;;7.45;;
69910;SDS011;57194;50.156;14.518;2022-08-23T05:00:20;16.40;;;7.43;;
69910;SDS011;57194;50.156;14.518;2022-08-23T05:02:46;18.88;;;8.15;;
69910;SDS011;57194;50.156;14.518;2022-08-23T05:05:11;17.40;;;7.63;;
69910;SDS011;57194;50.156;14.518;2022-08-23T05:07:38;17.50;;;7.68;;
69910;SDS011;57194;50.156;14.518;2022-08-23T05:10:05;17.17;;;7.75;;
69910;SDS011;57194;50.156;14.518;2022-08-23T05:12:32;21.13;;;8.52;;
69910;SDS011;57194;50.156;14.518;2022-08-23T05:14:57;16.25;;;7.20;;
69910;SDS011;57194;50.156;14.518;2022-08-23T05:17:23;19.47;;;8.70;;
69910;SDS011;57194;50.156;14.518;2022-08-23T05:19:48;19.43;;;8.90;;
69910;SDS011;57194;50.156;14.518;2022-08-23T05:22:13;21.47;;;9.40;;
69910;SDS011;57194;50.156;14.518;2022-08-23T05:24:39;22.65;;;9.68;;
69910;SDS011;57194;50.156;14.518;2022-08-23T05:27:04;19.97;;;9.07;;
69910;SDS011;57194;50.156;14.518;2022-08-23T05:29:30;19.80;;;9.30;;
69910;SDS011;57194;50.156;14.518;2022-08-23T05:31:55;20.77;;;8.30;;
69910;SDS011;57194;50.156;14.518;2022-08-23T05:34:21;21.40;;;8.48;;
69910;SDS011;57194;50.156;14.518;2022-08-23T05:36:46;23.43;;;8.53;;
69910;SDS011;57194;50.156;14.518;2022-08-23T05:39:12;21.15;;;9.45;;
69910;SDS011;57194;50.156;14.518;2022-08-23T05:41:38;18.70;;;8.53;;
69910;SDS011;57194;50.156;14.518;2022-08-23T05:44:04;22.02;;;8.73;;
69910;SDS011;57194;50.156;14.518;2022-08-23T05:46:30;24.77;;;10.35;;
69910;SDS011;57194;50.156;14.518;2022-08-23T05:48:55;26.20;;;10.37;;
69910;SDS011;57194;50.156;14.518;2022-08-23T05:53:46;24.23;;;10.47;;
69910;SDS011;57194;50.156;14.518;2022-08-23T05:58:49;25.40;;;9.90;;
69910;SDS011;57194;50.156;14.518;2022-08-23T06:01:16;22.17;;;9.68;;
69910;SDS011;57194;50.156;14.518;2022-08-23T06:03:43;27.48;;;10.00;;
69910;SDS011;57194;50.156;14.518;2022-08-23T06:06:08;22.87;;;9.77;;
69910;SDS011;57194;50.156;14.518;2022-08-23T06:08:35;24.15;;;9.00;;
69910;SDS011;57194;50.156;14.518;2022-08-23T06:11:03;30.25;;;11.27;;
69910;SDS011;57194;50.156;14.518;2022-08-23T06:13:32;27.38;;;11.07;;
69910;SDS011;57194;50.156;14.518;2022-08-23T06:15:58;27.15;;;9.95;;
69910;SDS011;57194;50.156;14.518;2022-08-23T06:18:27;32.13;;;11.05;;
69910;SDS011;57194;50.156;14.518;2022-08-23T06:21:25;27.98;;;11.13;;
69910;SDS011;57194;50.156;14.518;2022-08-23T06:23:44;31.60;;;11.25;;
69910;SDS011;57194;50.156;14.518;2022-08-23T06:28:49;30.95;;;11.35;;
69910;SDS011;57194;50.156;14.518;2022-08-23T06:31:16;26.27;;;10.68;;
69910;SDS011;57194;50.156;14.518;2022-08-23T06:34:05;26.88;;;10.70;;
69910;SDS011;57194;50.156;14.518;2022-08-23T06:36:31;25.70;;;9.95;;
69910;SDS011;57194;50.156;14.518;2022-08-23T06:38:57;22.88;;;9.02;;
69910;SDS011;57194;50.156;14.518;2022-08-23T06:41:23;29.07;;;10.37;;
69910;SDS011;57194;50.156;14.518;2022-08-23T06:43:49;27.67;;;11.23;;
69910;SDS011;57194;50.156;14.518;2022-08-23T06:46:19;26.63;;;10.98;;
69910;SDS011;57194;50.156;14.518;2022-08-23T06:48:47;18.30;;;9.18;;
69910;SDS011;57194;50.156;14.518;2022-08-23T06:51:22;23.90;;;10.13;;
69910;SDS011;57194;50.156;14.518;2022-08-23T06:53:54;29.35;;;9.75;;
69910;SDS011;57194;50.156;14.518;2022-08-23T06:56:21;31.17;;;11.17;;
69910;SDS011;57194;50.156;14.518;2022-08-23T06:58:48;24.20;;;9.85;;
69910;SDS011;57194;50.156;14.518;2022-08-23T07:03:56;37.63;;;12.32;;
69910;SDS011;57194;50.156;14.518;2022-08-23T07:06:23;29.83;;;10.70;;
69910;SDS011;57194;50.156;14.518;2022-08-23T07:08:49;27.73;;;10.02;;
69910;SDS011;57194;50.156;14.518;2022-08-23T07:11:15;33.88;;;11.93;;
69910;SDS011;57194;50.156;14.518;2022-08-23T07:13:40;31.53;;;11.03;;
69910;SDS011;57194;50.156;14.518;2022-08-23T07:16:06;31.50;;;11.40;;
69910;SDS011;57194;50.156;14.518;2022-08-23T07:18:31;33.40;;;13.30;;
69910;SDS011;57194;50.156;14.518;2022-08-23T07:20:57;33.50;;;12.17;;
69910;SDS011;57194;50.156;14.518;2022-08-23T07:23:25;38.85;;;13.43;;
69910;SDS011;57194;50.156;14.518;2022-08-23T07:25:50;33.13;;;12.50;;
69910;SDS011;57194;50.156;14.518;2022-08-23T07:28:16;31.10;;;12.13;;
69910;SDS011;57194;50.156;14.518;2022-08-23T07:30:41;38.40;;;12.65;;
69910;SDS011;57194;50.156;14.518;2022-08-23T07:33:07;37.97;;;12.90;;
69910;SDS011;57194;50.156;14.518;2022-08-23T07:35:32;35.27;;;12.00;;
69910;SDS011;57194;50.156;14.518;2022-08-23T07:37:58;33.60;;;11.40;;
69910;SDS011;57194;50.156;14.518;2022-08-23T07:40:23;36.30;;;13.45;;
69910;SDS011;57194;50.156;14.518;2022-08-23T07:42:48;35.30;;;12.00;;
69910;SDS011;57194;50.156;14.518;2022-08-23T07:45:14;28.97;;;11.07;;
69910;SDS011;57194;50.156;14.518;2022-08-23T07:47:39;32.43;;;12.10;;
69910;SDS011;57194;50.156;14.518;2022-08-23T07:50:06;35.47;;;13.18;;
69910;SDS011;57194;50.156;14.518;2022-08-23T07:52:32;26.83;;;10.27;;
69910;SDS011;57194;50.156;14.518;2022-08-23T07:54:57;34.77;;;13.13;;
69910;SDS011;57194;50.156;14.518;2022-08-23T07:57:23;35.55;;;13.23;;
69910;SDS011;57194;50.156;14.518;2022-08-23T07:59:48;34.50;;;12.17;;
69910;SDS011;57194;50.156;14.518;2022-08-23T08:02:13;29.57;;;12.00;;
69910;SDS011;57194;50.156;14.518;2022-08-23T08:04:39;32.00;;;12.27;;
69910;SDS011;57194;50.156;14.518;2022-08-23T08:07:05;33.42;;;13.15;;
69910;SDS011;57194;50.156;14.518;2022-08-23T08:09:30;28.53;;;11.43;;
69910;SDS011;57194;50.156;14.518;2022-08-23T08:11:55;34.00;;;11.97;;
69910;SDS011;57194;50.156;14.518;2022-08-23T08:14:21;27.33;;;11.23;;
69910;SDS011;57194;50.156;14.518;2022-08-23T08:16:47;25.50;;;10.77;;
69910;SDS011;57194;50.156;14.518;2022-08-23T08:19:14;29.98;;;12.05;;
69910;SDS011;57194;50.156;14.518;2022-08-23T08:21:41;27.10;;;11.38;;
69910;SDS011;57194;50.156;14.518;2022-08-23T08:24:09;31.23;;;12.73;;
69910;SDS011;57194;50.156;14.518;2022-08-23T08:26:38;36.83;;;13.57;;
69910;SDS011;57194;50.156;14.518;2022-08-23T08:29:05;30.48;;;13.25;;
69910;SDS011;57194;50.156;14.518;2022-08-23T08:31:31;31.70;;;13.02;;
69910;SDS011;57194;50.156;14.518;2022-08-23T08:33:58;30.65;;;13.35;;
69910;SDS011;57194;50.156;14.518;2022-08-23T08:36:31;29.27;;;11.23;;
69910;SDS011;57194;50.156;14.518;2022-08-23T08:39:00;25.83;;;11.77;;
69910;SDS011;57194;50.156;14.518;2022-08-23T08:46:51;32.33;;;12.75;;
69910;SDS011;57194;50.156;14.518;2022-08-23T08:49:41;29.17;;;12.55;;
69910;SDS011;57194;50.156;14.518;2022-08-23T08:52:20;25.65;;;11.77;;
69910;SDS011;57194;50.156;14.518;2022-08-23T08:54:54;23.73;;;12.17;;
69910;SDS011;57194;50.156;14.518;2022-08-23T08:57:26;28.17;;;13.10;;
69910;SDS011;57194;50.156;14.518;2022-08-23T09:00:03;22.35;;;10.98;;
69910;SDS011;57194;50.156;14.518;2022-08-23T09:02:33;22.48;;;11.75;;
69910;SDS011;57194;50.156;14.518;2022-08-23T09:05:06;31.83;;;13.15;;
69910;SDS011;57194;50.156;14.518;2022-08-23T09:07:49;25.90;;;12.90;;
69910;SDS011;57194;50.156;14.518;2022-08-23T09:16:02;25.13;;;11.75;;
69910;SDS011;57194;50.156;14.518;2022-08-23T09:18:31;22.77;;;11.23;;
69910;SDS011;57194;50.156;14.518;2022-08-23T09:20:59;22.90;;;11.97;;
69910;SDS011;57194;50.156;14.518;2022-08-23T09:23:27;22.95;;;12.82;;
69910;SDS011;57194;50.156;14.518;2022-08-23T09:26:02;19.60;;;11.30;;
69910;SDS011;57194;50.156;14.518;2022-08-23T09:28:39;22.20;;;11.90;;
69910;SDS011;57194;50.156;14.518;2022-08-23T09:31:04;22.97;;;11.10;;
69910;SDS011;57194;50.156;14.518;2022-08-23T09:33:41;23.98;;;12.50;;
69910;SDS011;57194;50.156;14.518;2022-08-23T09:36:25;23.20;;;11.75;;
69910;SDS011;57194;50.156;14.518;2022-08-23T09:38:53;21.80;;;12.05;;
69910;SDS011;57194;50.156;14.518;2022-08-23T09:41:26;22.25;;;11.10;;
69910;SDS011;57194;50.156;14.518;2022-08-23T09:44:03;22.67;;;11.52;;
69910;SDS011;57194;50.156;14.518;2022-08-23T09:46:32;22.20;;;11.90;;
69910;SDS011;57194;50.156;14.518;2022-08-23T09:49:17;23.73;;;11.45;;
69910;SDS011;57194;50.156;14.518;2022-08-23T09:51:52;23.60;;;12.63;;
69910;SDS011;57194;50.156;14.518;2022-08-23T09:54:24;23.05;;;11.65;;
69910;SDS011;57194;50.156;14.518;2022-08-23T09:56:55;22.77;;;12.20;;
69910;SDS011;57194;50.156;14.518;2022-08-23T10:01:53;24.88;;;12.75;;
69910;SDS011;57194;50.156;14.518;2022-08-23T10:04:40;25.10;;;13.13;;
69910;SDS011;57194;50.156;14.518;2022-08-23T10:07:22;23.67;;;13.50;;
69910;SDS011;57194;50.156;14.518;2022-08-23T10:09:53;27.13;;;13.27;;
69910;SDS011;57194;50.156;14.518;2022-08-23T10:12:36;25.05;;;13.27;;
69910;SDS011;57194;50.156;14.518;2022-08-23T10:15:01;26.87;;;13.77;;
69910;SDS011;57194;50.156;14.518;2022-08-23T10:23:02;23.25;;;11.68;;
69910;SDS011;57194;50.156;14.518;2022-08-23T10:25:44;22.53;;;9.90;;
69910;SDS011;57194;50.156;14.518;2022-08-23T10:31:42;20.35;;;10.95;;
69910;SDS011;57194;50.156;14.518;2022-08-23T10:34:39;19.40;;;10.80;;
69910;SDS011;57194;50.156;14.518;2022-08-23T10:37:17;19.55;;;11.35;;
69910;SDS011;57194;50.156;14.518;2022-08-23T10:39:52;21.47;;;10.87;;
69910;SDS011;57194;50.156;14.518;2022-08-23T10:45:02;20.25;;;11.10;;
69910;SDS011;57194;50.156;14.518;2022-08-23T10:50:52;20.73;;;10.60;;
69910;SDS011;57194;50.156;14.518;2022-08-23T10:53:20;18.67;;;10.70;;
69910;SDS011;57194;50.156;14.518;2022-08-23T10:55:51;20.87;;;11.07;;
69910;SDS011;57194;50.156;14.518;2022-08-23T11:01:07;20.60;;;11.38;;
69910;SDS011;57194;50.156;14.518;2022-08-23T11:03:42;21.38;;;11.73;;
69910;SDS011;57194;50.156;14.518;2022-08-23T11:14:06;18.83;;;10.90;;
69910;SDS011;57194;50.156;14.518;2022-08-23T11:16:34;22.75;;;11.10;;
69910;SDS011;57194;50.156;14.518;2022-08-23T11:19:02;20.77;;;11.05;;
69910;SDS011;57194;50.156;14.518;2022-08-23T11:34:49;18.88;;;10.57;;
69910;SDS011;57194;50.156;14.518;2022-08-23T11:37:23;18.10;;;9.50;;
69910;SDS011;57194;50.156;14.518;2022-08-23T11:42:23;22.80;;;10.63;;
69910;SDS011;57194;50.156;14.518;2022-08-23T11:44:58;19.13;;;10.27;;
69910;SDS011;57194;50.156;14.518;2022-08-23T11:47:36;18.58;;;9.95;;
69910;SDS011;57194;50.156;14.518;2022-08-23T11:50:18;20.40;;;10.15;;
69910;SDS011;57194;50.156;14.518;2022-08-23T11:55:30;17.97;;;9.83;;
69910;SDS011;57194;50.156;14.518;2022-08-23T12:11:15;22.83;;;10.40;;
69910;SDS011;57194;50.156;14.518;2022-08-23T12:13:48;20.65;;;9.57;;
69910;SDS011;57194;50.156;14.518;2022-08-23T12:21:20;20.20;;;10.23;;
69910;SDS011;57194;50.156;14.518;2022-08-23T12:23:54;17.48;;;10.38;;
69910;SDS011;57194;50.156;14.518;2022-08-23T12:29:24;19.65;;;10.07;;
69910;SDS011;57194;50.156;14.518;2022-08-23T12:32:06;19.48;;;10.43;;
69910;SDS011;57194;50.156;14.518;2022-08-23T12:37:08;18.63;;;9.67;;
69910;SDS011;57194;50.156;14.518;2022-08-23T12:39:51;19.50;;;10.95;;
69910;SDS011;57194;50.156;14.518;2022-08-23T12:42:24;21.63;;;11.02;;
69910;SDS011;57194;50.156;14.518;2022-08-23T12:47:43;23.10;;;11.23;;
69910;SDS011;57194;50.156;14.518;2022-08-23T12:50:23;20.25;;;10.93;;
69910;SDS011;57194;50.156;14.518;2022-08-23T12:52:56;24.25;;;11.68;;
69910;SDS011;57194;50.156;14.518;2022-08-23T12:55:28;21.08;;;11.43;;
69910;SDS011;57194;50.156;14.518;2022-08-23T12:58:00;20.45;;;11.70;;
69910;SDS011;57194;50.156;14.518;2022-08-23T13:00:29;20.60;;;10.50;;
69910;SDS011;57194;50.156;14.518;2022-08-23T13:03:03;17.15;;;9.73;;
69910;SDS011;57194;50.156;14.518;2022-08-23T13:05:31;18.45;;;10.63;;
69910;SDS011;57194;50.156;14.518;2022-08-23T13:08:09;17.98;;;10.50;;
69910;SDS011;57194;50.156;14.518;2022-08-23T13:10:38;18.90;;;10.20;;
69910;SDS011;57194;50.156;14.518;2022-08-23T13:13:07;21.30;;;10.70;;
69910;SDS011;57194;50.156;14.518;2022-08-23T13:18:22;17.70;;;9.50;;
69910;SDS011;57194;50.156;14.518;2022-08-23T13:23:48;22.73;;;11.30;;
69910;SDS011;57194;50.156;14.518;2022-08-23T13:29:12;19.90;;;10.98;;
69910;SDS011;57194;50.156;14.518;2022-08-23T13:31:50;21.95;;;11.63;;
69910;SDS011;57194;50.156;14.518;2022-08-23T13:37:00;22.35;;;11.20;;
69910;SDS011;57194;50.156;14.518;2022-08-23T13:39:28;20.63;;;11.23;;
69910;SDS011;57194;50.156;14.518;2022-08-23T13:41:55;19.65;;;10.30;;
69910;SDS011;57194;50.156;14.518;2022-08-23T13:44:21;18.70;;;10.68;;
69910;SDS011;57194;50.156;14.518;2022-08-23T13:46:47;19.02;;;10.32;;
69910;SDS011;57194;50.156;14.518;2022-08-23T13:54:22;16.92;;;10.02;;
69910;SDS011;57194;50.156;14.518;2022-08-23T13:56:48;17.57;;;10.60;;
69910;SDS011;57194;50.156;14.518;2022-08-23T14:01:57;19.70;;;9.32;;
69910;SDS011;57194;50.156;14.518;2022-08-23T14:04:24;16.02;;;9.60;;
69910;SDS011;57194;50.156;14.518;2022-08-23T14:06:49;18.00;;;9.47;;
69910;SDS011;57194;50.156;14.518;2022-08-23T14:09:15;17.20;;;9.20;;
69910;SDS011;57194;50.156;14.518;2022-08-23T14:11:41;17.87;;;10.13;;
69910;SDS011;57194;50.156;14.518;2022-08-23T14:14:06;15.70;;;9.10;;
69910;SDS011;57194;50.156;14.518;2022-08-23T14:16:35;16.98;;;9.70;;
69910;SDS011;57194;50.156;14.518;2022-08-23T14:19:04;17.65;;;9.13;;
69910;SDS011;57194;50.156;14.518;2022-08-23T14:21:30;17.17;;;9.48;;
69910;SDS011;57194;50.156;14.518;2022-08-23T14:23:56;15.70;;;9.03;;
69910;SDS011;57194;50.156;14.518;2022-08-23T14:26:21;16.95;;;10.10;;
69910;SDS011;57194;50.156;14.518;2022-08-23T14:28:48;17.80;;;10.18;;
69910;SDS011;57194;50.156;14.518;2022-08-23T14:31:14;16.73;;;9.77;;
69910;SDS011;57194;50.156;14.518;2022-08-23T14:33:39;15.93;;;8.70;;
69910;SDS011;57194;50.156;14.518;2022-08-23T14:36:05;15.63;;;9.53;;
69910;SDS011;57194;50.156;14.518;2022-08-23T14:38:31;16.73;;;9.45;;
69910;SDS011;57194;50.156;14.518;2022-08-23T14:40:58;18.20;;;10.17;;
69910;SDS011;57194;50.156;14.518;2022-08-23T14:43:27;17.20;;;9.60;;
69910;SDS011;57194;50.156;14.518;2022-08-23T14:45:54;15.60;;;9.63;;
69910;SDS011;57194;50.156;14.518;2022-08-23T14:48:20;18.27;;;9.13;;
69910;SDS011;57194;50.156;14.518;2022-08-23T14:50:47;16.77;;;9.48;;
69910;SDS011;57194;50.156;14.518;2022-08-23T14:53:13;15.00;;;9.27;;
69910;SDS011;57194;50.156;14.518;2022-08-23T14:55:40;18.75;;;8.90;;
69910;SDS011;57194;50.156;14.518;2022-08-23T14:58:05;16.40;;;9.70;;
69910;SDS011;57194;50.156;14.518;2022-08-23T15:00:31;15.30;;;8.47;;
69910;SDS011;57194;50.156;14.518;2022-08-23T15:02:59;15.82;;;9.40;;
69910;SDS011;57194;50.156;14.518;2022-08-23T15:05:27;15.95;;;9.13;;
69910;SDS011;57194;50.156;14.518;2022-08-23T15:07:52;16.13;;;8.57;;
69910;SDS011;57194;50.156;14.518;2022-08-23T15:10:17;16.87;;;8.83;;
69910;SDS011;57194;50.156;14.518;2022-08-23T15:12:43;16.80;;;8.77;;
69910;SDS011;57194;50.156;14.518;2022-08-23T15:15:10;14.50;;;8.03;;
69910;SDS011;57194;50.156;14.518;2022-08-23T15:17:44;14.75;;;7.90;;
69910;SDS011;57194;50.156;14.518;2022-08-23T15:20:26;15.98;;;8.65;;
69910;SDS011;57194;50.156;14.518;2022-08-23T15:22:57;20.58;;;9.27;;
69910;SDS011;57194;50.156;14.518;2022-08-23T15:25:24;16.00;;;8.60;;
69910;SDS011;57194;50.156;14.518;2022-08-23T15:27:52;16.92;;;9.85;;
69910;SDS011;57194;50.156;14.518;2022-08-23T15:30:19;16.38;;;8.65;;
69910;SDS011;57194;50.156;14.518;2022-08-23T15:32:44;13.43;;;7.88;;
69910;SDS011;57194;50.156;14.518;2022-08-23T15:35:10;15.97;;;8.83;;
69910;SDS011;57194;50.156;14.518;2022-08-23T15:37:36;15.70;;;9.43;;
69910;SDS011;57194;50.156;14.518;2022-08-23T15:40:03;15.57;;;8.95;;
69910;SDS011;57194;50.156;14.518;2022-08-23T15:42:30;15.17;;;8.70;;
69910;SDS011;57194;50.156;14.518;2022-08-23T15:44:55;18.40;;;8.98;;
69910;SDS011;57194;50.156;14.518;2022-08-23T15:47:23;17.45;;;8.73;;
69910;SDS011;57194;50.156;14.518;2022-08-23T15:49:53;14.30;;;8.20;;
69910;SDS011;57194;50.156;14.518;2022-08-23T15:52:19;14.27;;;7.88;;
69910;SDS011;57194;50.156;14.518;2022-08-23T15:54:45;15.82;;;7.63;;
69910;SDS011;57194;50.156;14.518;2022-08-23T15:57:15;13.13;;;7.18;;
69910;SDS011;57194;50.156;14.518;2022-08-23T15:59:44;16.10;;;7.75;;
69910;SDS011;57194;50.156;14.518;2022-08-23T16:02:09;12.48;;;7.63;;
69910;SDS011;57194;50.156;14.518;2022-08-23T16:04:35;13.50;;;7.40;;
69910;SDS011;57194;50.156;14.518;2022-08-23T16:07:00;12.82;;;6.63;;
69910;SDS011;57194;50.156;14.518;2022-08-23T16:09:29;12.85;;;6.25;;
69910;SDS011;57194;50.156;14.518;2022-08-23T16:11:54;11.77;;;6.28;;
69910;SDS011;57194;50.156;14.518;2022-08-23T16:14:19;10.30;;;5.83;;
69910;SDS011;57194;50.156;14.518;2022-08-23T16:16:45;10.63;;;5.33;;
69910;SDS011;57194;50.156;14.518;2022-08-23T16:19:11;10.30;;;5.90;;
69910;SDS011;57194;50.156;14.518;2022-08-23T16:21:37;8.82;;;5.60;;
69910;SDS011;57194;50.156;14.518;2022-08-23T16:24:04;8.80;;;5.25;;
69910;SDS011;57194;50.156;14.518;2022-08-23T16:26:32;9.68;;;5.65;;